sensor_id;sensor_type;location;lat;lon;timestamp;P1;durP1;ratioP1;P2;durP2;ratioP2
8708;SDS011;4391;48.678;9.280;2023-06-10T00:03:45;7.03;;;4.60;;
8708;SDS011;4391;48.678;9.280;2023-06-10T00:06:11;8.18;;;4.80;;
8708;SDS011;4391;48.678;9.280;2023-06-10T00:08:40;8.95;;;5.28;;
8708;SDS011;4391;48.678;9.280;2023-06-10T00:11:07;9.45;;;5.00;;
8708;SDS011;4391;48.678;9.280;2023-06-10T00:13:34;8.00;;;5.30;;
8708;SDS011;4391;48.678;9.280;2023-06-10T00:16:00;9.30;;;5.37;;
8708;SDS011;4391;48.678;9.280;2023-06-10T00:18:28;7.75;;;4.95;;
8708;SDS011;4391;48.678;9.280;2023-06-10T00:20:56;7.93;;;5.10;;
8708;SDS011;4391;48.678;9.280;2023-06-10T00:23:29;9.07;;;5.18;;
8708;SDS011;4391;48.678;9.280;2023-06-10T00:25:58;8.93;;;5.43;;
8708;SDS011;4391;48.678;9.280;2023-06-10T00:28:25;9.20;;;5.20;;
8708;SDS011;4391;48.678;9.280;2023-06-10T00:30:52;8.23;;;4.80;;
8708;SDS011;4391;48.678;9.280;2023-06-10T00:33:19;9.75;;;5.35;;
8708;SDS011;4391;48.678;9.280;2023-06-10T00:35:46;9.20;;;5.35;;
8708;SDS011;4391;48.678;9.280;2023-06-10T00:38:13;8.25;;;5.15;;
8708;SDS011;4391;48.678;9.280;2023-06-10T00:40:40;8.83;;;5.50;;
8708;SDS011;4391;48.678;9.280;2023-06-10T00:43:09;8.23;;;5.20;;
8708;SDS011;4391;48.678;9.280;2023-06-10T00:45:36;8.15;;;5.35;;
8708;SDS011;4391;48.678;9.280;2023-06-10T00:48:03;7.70;;;4.80;;
8708;SDS011;4391;48.678;9.280;2023-06-10T00:50:30;10.15;;;5.50;;
8708;SDS011;4391;48.678;9.280;2023-06-10T00:53:00;8.17;;;5.23;;
8708;SDS011;4391;48.678;9.280;2023-06-10T00:55:28;7.53;;;4.85;;
8708;SDS011;4391;48.678;9.280;2023-06-10T00:57:54;8.77;;;5.50;;
8708;SDS011;4391;48.678;9.280;2023-06-10T01:00:23;9.68;;;5.35;;
8708;SDS011;4391;48.678;9.280;2023-06-10T01:02:50;8.95;;;5.70;;
8708;SDS011;4391;48.678;9.280;2023-06-10T01:05:17;8.87;;;5.50;;
8708;SDS011;4391;48.678;9.280;2023-06-10T01:07:47;8.80;;;5.75;;
8708;SDS011;4391;48.678;9.280;2023-06-10T01:10:23;10.02;;;5.80;;
8708;SDS011;4391;48.678;9.280;2023-06-10T01:12:55;9.60;;;5.80;;
8708;SDS011;4391;48.678;9.280;2023-06-10T01:15:30;9.27;;;5.85;;
8708;SDS011;4391;48.678;9.280;2023-06-10T01:17:58;9.37;;;5.80;;
8708;SDS011;4391;48.678;9.280;2023-06-10T01:20:27;9.30;;;5.78;;
8708;SDS011;4391;48.678;9.280;2023-06-10T01:22:56;12.77;;;6.00;;
8708;SDS011;4391;48.678;9.280;2023-06-10T01:25:23;9.93;;;6.20;;
8708;SDS011;4391;48.678;9.280;2023-06-10T01:27:54;10.18;;;6.28;;
8708;SDS011;4391;48.678;9.280;2023-06-10T01:30:37;11.73;;;5.77;;
8708;SDS011;4391;48.678;9.280;2023-06-10T01:33:14;9.00;;;5.35;;
8708;SDS011;4391;48.678;9.280;2023-06-10T01:35:43;11.35;;;6.25;;
8708;SDS011;4391;48.678;9.280;2023-06-10T01:38:12;10.45;;;5.57;;
8708;SDS011;4391;48.678;9.280;2023-06-10T01:40:41;8.98;;;5.65;;
8708;SDS011;4391;48.678;9.280;2023-06-10T01:43:09;9.40;;;5.90;;
8708;SDS011;4391;48.678;9.280;2023-06-10T01:45:36;9.98;;;5.72;;
8708;SDS011;4391;48.678;9.280;2023-06-10T01:48:03;8.35;;;5.57;;
8708;SDS011;4391;48.678;9.280;2023-06-10T01:50:30;9.32;;;6.07;;
8708;SDS011;4391;48.678;9.280;2023-06-10T01:52:57;8.93;;;5.80;;
8708;SDS011;4391;48.678;9.280;2023-06-10T01:55:26;8.70;;;5.70;;
8708;SDS011;4391;48.678;9.280;2023-06-10T01:57:52;8.68;;;5.20;;
8708;SDS011;4391;48.678;9.280;2023-06-10T02:00:19;9.50;;;5.75;;
8708;SDS011;4391;48.678;9.280;2023-06-10T02:02:46;13.90;;;5.70;;
8708;SDS011;4391;48.678;9.280;2023-06-10T02:05:13;8.65;;;5.85;;
8708;SDS011;4391;48.678;9.280;2023-06-10T02:07:40;10.77;;;6.03;;
8708;SDS011;4391;48.678;9.280;2023-06-10T02:10:07;8.27;;;5.60;;
8708;SDS011;4391;48.678;9.280;2023-06-10T02:12:36;9.18;;;5.53;;
8708;SDS011;4391;48.678;9.280;2023-06-10T02:15:03;10.18;;;5.88;;
8708;SDS011;4391;48.678;9.280;2023-06-10T02:17:30;11.25;;;5.45;;
8708;SDS011;4391;48.678;9.280;2023-06-10T02:19:57;8.50;;;5.27;;
8708;SDS011;4391;48.678;9.280;2023-06-10T02:22:25;10.57;;;6.15;;
8708;SDS011;4391;48.678;9.280;2023-06-10T02:24:51;8.38;;;5.78;;
8708;SDS011;4391;48.678;9.280;2023-06-10T02:27:18;13.93;;;6.05;;
8708;SDS011;4391;48.678;9.280;2023-06-10T02:29:48;10.57;;;5.72;;
8708;SDS011;4391;48.678;9.280;2023-06-10T02:32:15;9.50;;;5.77;;
8708;SDS011;4391;48.678;9.280;2023-06-10T02:34:42;9.95;;;5.60;;
8708;SDS011;4391;48.678;9.280;2023-06-10T02:37:09;9.57;;;5.45;;
8708;SDS011;4391;48.678;9.280;2023-06-10T02:39:35;8.65;;;5.82;;
8708;SDS011;4391;48.678;9.280;2023-06-10T02:42:03;10.55;;;5.60;;
8708;SDS011;4391;48.678;9.280;2023-06-10T02:44:30;10.87;;;5.80;;
8708;SDS011;4391;48.678;9.280;2023-06-10T02:46:58;10.25;;;5.82;;
8708;SDS011;4391;48.678;9.280;2023-06-10T02:49:25;9.68;;;6.05;;
8708;SDS011;4391;48.678;9.280;2023-06-10T02:51:52;9.52;;;5.88;;
8708;SDS011;4391;48.678;9.280;2023-06-10T02:54:20;9.65;;;5.72;;
8708;SDS011;4391;48.678;9.280;2023-06-10T02:56:47;9.77;;;6.00;;
8708;SDS011;4391;48.678;9.280;2023-06-10T02:59:14;10.00;;;5.85;;
8708;SDS011;4391;48.678;9.280;2023-06-10T03:01:41;9.50;;;6.10;;
8708;SDS011;4391;48.678;9.280;2023-06-10T03:04:09;8.82;;;5.20;;
8708;SDS011;4391;48.678;9.280;2023-06-10T03:06:38;8.20;;;5.40;;
8708;SDS011;4391;48.678;9.280;2023-06-10T03:09:05;10.10;;;5.43;;
8708;SDS011;4391;48.678;9.280;2023-06-10T03:11:33;9.77;;;5.47;;
8708;SDS011;4391;48.678;9.280;2023-06-10T03:14:00;9.10;;;5.72;;
8708;SDS011;4391;48.678;9.280;2023-06-10T03:16:27;9.05;;;5.55;;
8708;SDS011;4391;48.678;9.280;2023-06-10T03:18:55;9.20;;;5.97;;
8708;SDS011;4391;48.678;9.280;2023-06-10T03:21:23;11.27;;;5.67;;
8708;SDS011;4391;48.678;9.280;2023-06-10T03:23:50;9.40;;;5.38;;
8708;SDS011;4391;48.678;9.280;2023-06-10T03:26:17;7.90;;;4.95;;
8708;SDS011;4391;48.678;9.280;2023-06-10T03:28:46;8.70;;;5.60;;
8708;SDS011;4391;48.678;9.280;2023-06-10T03:31:13;9.23;;;5.63;;
8708;SDS011;4391;48.678;9.280;2023-06-10T03:33:41;9.63;;;5.57;;
8708;SDS011;4391;48.678;9.280;2023-06-10T03:36:08;9.82;;;5.25;;
8708;SDS011;4391;48.678;9.280;2023-06-10T03:38:37;10.43;;;5.22;;
8708;SDS011;4391;48.678;9.280;2023-06-10T03:41:03;8.82;;;5.50;;
8708;SDS011;4391;48.678;9.280;2023-06-10T03:43:30;8.73;;;5.88;;
8708;SDS011;4391;48.678;9.280;2023-06-10T03:45:57;9.20;;;5.80;;
8708;SDS011;4391;48.678;9.280;2023-06-10T03:48:24;10.25;;;6.13;;
8708;SDS011;4391;48.678;9.280;2023-06-10T03:50:51;12.73;;;6.45;;
8708;SDS011;4391;48.678;9.280;2023-06-10T03:53:17;8.90;;;5.68;;
8708;SDS011;4391;48.678;9.280;2023-06-10T03:55:46;9.80;;;6.50;;
8708;SDS011;4391;48.678;9.280;2023-06-10T03:58:13;9.67;;;5.87;;
8708;SDS011;4391;48.678;9.280;2023-06-10T04:00:40;9.82;;;6.25;;
8708;SDS011;4391;48.678;9.280;2023-06-10T04:03:07;10.63;;;6.32;;
8708;SDS011;4391;48.678;9.280;2023-06-10T04:05:39;9.32;;;6.10;;
8708;SDS011;4391;48.678;9.280;2023-06-10T04:08:06;9.80;;;6.20;;
8708;SDS011;4391;48.678;9.280;2023-06-10T04:10:33;10.07;;;5.70;;
8708;SDS011;4391;48.678;9.280;2023-06-10T04:13:01;11.07;;;6.20;;
8708;SDS011;4391;48.678;9.280;2023-06-10T04:15:28;12.73;;;6.15;;
8708;SDS011;4391;48.678;9.280;2023-06-10T04:17:57;9.45;;;5.50;;
8708;SDS011;4391;48.678;9.280;2023-06-10T04:20:24;10.00;;;6.03;;
8708;SDS011;4391;48.678;9.280;2023-06-10T04:22:51;10.00;;;6.33;;
8708;SDS011;4391;48.678;9.280;2023-06-10T04:25:18;9.60;;;6.50;;
8708;SDS011;4391;48.678;9.280;2023-06-10T04:27:45;10.35;;;6.15;;
8708;SDS011;4391;48.678;9.280;2023-06-10T04:30:14;9.20;;;6.22;;
8708;SDS011;4391;48.678;9.280;2023-06-10T04:32:41;9.52;;;6.05;;
8708;SDS011;4391;48.678;9.280;2023-06-10T04:35:08;8.87;;;5.30;;
8708;SDS011;4391;48.678;9.280;2023-06-10T04:37:37;9.40;;;6.07;;
8708;SDS011;4391;48.678;9.280;2023-06-10T04:40:05;11.82;;;6.10;;
8708;SDS011;4391;48.678;9.280;2023-06-10T04:42:32;9.40;;;6.07;;
8708;SDS011;4391;48.678;9.280;2023-06-10T04:44:59;9.40;;;6.10;;
8708;SDS011;4391;48.678;9.280;2023-06-10T04:47:27;9.97;;;5.50;;
8708;SDS011;4391;48.678;9.280;2023-06-10T04:49:58;10.80;;;6.15;;
8708;SDS011;4391;48.678;9.280;2023-06-10T04:52:25;8.85;;;5.40;;
8708;SDS011;4391;48.678;9.280;2023-06-10T04:54:51;10.20;;;6.00;;
8708;SDS011;4391;48.678;9.280;2023-06-10T04:57:18;16.13;;;6.13;;
8708;SDS011;4391;48.678;9.280;2023-06-10T04:59:45;9.13;;;5.43;;
8708;SDS011;4391;48.678;9.280;2023-06-10T05:02:12;10.05;;;6.40;;
8708;SDS011;4391;48.678;9.280;2023-06-10T05:04:40;10.13;;;6.28;;
8708;SDS011;4391;48.678;9.280;2023-06-10T05:07:07;9.50;;;5.82;;
8708;SDS011;4391;48.678;9.280;2023-06-10T05:09:34;9.68;;;6.22;;
8708;SDS011;4391;48.678;9.280;2023-06-10T05:12:02;11.40;;;6.37;;
8708;SDS011;4391;48.678;9.280;2023-06-10T05:14:29;12.27;;;6.45;;
8708;SDS011;4391;48.678;9.280;2023-06-10T05:16:56;10.50;;;5.88;;
8708;SDS011;4391;48.678;9.280;2023-06-10T05:19:23;12.23;;;5.50;;
8708;SDS011;4391;48.678;9.280;2023-06-10T05:21:51;11.90;;;5.40;;
8708;SDS011;4391;48.678;9.280;2023-06-10T05:24:18;8.80;;;4.87;;
8708;SDS011;4391;48.678;9.280;2023-06-10T05:26:46;10.05;;;5.15;;
8708;SDS011;4391;48.678;9.280;2023-06-10T05:29:13;8.57;;;5.00;;
8708;SDS011;4391;48.678;9.280;2023-06-10T05:31:41;8.77;;;4.30;;
8708;SDS011;4391;48.678;9.280;2023-06-10T05:34:08;6.80;;;4.10;;
8708;SDS011;4391;48.678;9.280;2023-06-10T05:36:35;6.80;;;4.20;;
8708;SDS011;4391;48.678;9.280;2023-06-10T05:39:03;6.85;;;4.40;;
8708;SDS011;4391;48.678;9.280;2023-06-10T05:41:30;6.63;;;3.97;;
8708;SDS011;4391;48.678;9.280;2023-06-10T05:43:57;9.93;;;4.20;;
8708;SDS011;4391;48.678;9.280;2023-06-10T05:46:23;7.05;;;3.95;;
8708;SDS011;4391;48.678;9.280;2023-06-10T05:48:50;7.27;;;4.00;;
8708;SDS011;4391;48.678;9.280;2023-06-10T05:51:17;6.00;;;3.75;;
8708;SDS011;4391;48.678;9.280;2023-06-10T05:53:44;6.63;;;4.10;;
8708;SDS011;4391;48.678;9.280;2023-06-10T05:56:14;8.90;;;3.85;;
8708;SDS011;4391;48.678;9.280;2023-06-10T05:58:41;9.43;;;4.43;;
8708;SDS011;4391;48.678;9.280;2023-06-10T06:03:35;7.43;;;3.92;;
8708;SDS011;4391;48.678;9.280;2023-06-10T06:06:02;8.98;;;4.15;;
8708;SDS011;4391;48.678;9.280;2023-06-10T06:08:30;9.93;;;4.28;;
8708;SDS011;4391;48.678;9.280;2023-06-10T06:10:57;7.97;;;4.45;;
8708;SDS011;4391;48.678;9.280;2023-06-10T06:13:25;7.83;;;4.80;;
8708;SDS011;4391;48.678;9.280;2023-06-10T06:15:52;6.32;;;3.90;;
8708;SDS011;4391;48.678;9.280;2023-06-10T06:18:19;7.97;;;3.97;;
8708;SDS011;4391;48.678;9.280;2023-06-10T06:20:46;7.25;;;4.43;;
8708;SDS011;4391;48.678;9.280;2023-06-10T06:23:12;7.88;;;4.38;;
8708;SDS011;4391;48.678;9.280;2023-06-10T06:25:39;10.70;;;4.27;;
8708;SDS011;4391;48.678;9.280;2023-06-10T06:28:06;7.30;;;4.57;;
8708;SDS011;4391;48.678;9.280;2023-06-10T06:30:35;7.13;;;4.30;;
8708;SDS011;4391;48.678;9.280;2023-06-10T06:33:02;8.63;;;4.15;;
8708;SDS011;4391;48.678;9.280;2023-06-10T06:35:30;6.07;;;3.65;;
8708;SDS011;4391;48.678;9.280;2023-06-10T06:37:57;7.43;;;4.20;;
8708;SDS011;4391;48.678;9.280;2023-06-10T06:40:25;6.70;;;4.30;;
8708;SDS011;4391;48.678;9.280;2023-06-10T06:42:51;8.65;;;4.13;;
8708;SDS011;4391;48.678;9.280;2023-06-10T06:45:18;8.27;;;4.20;;
8708;SDS011;4391;48.678;9.280;2023-06-10T06:47:47;6.22;;;3.67;;
8708;SDS011;4391;48.678;9.280;2023-06-10T06:50:14;8.50;;;4.33;;
8708;SDS011;4391;48.678;9.280;2023-06-10T06:52:41;8.57;;;4.30;;
8708;SDS011;4391;48.678;9.280;2023-06-10T06:55:08;6.65;;;3.88;;
8708;SDS011;4391;48.678;9.280;2023-06-10T06:57:35;8.75;;;4.43;;
8708;SDS011;4391;48.678;9.280;2023-06-10T07:00:03;7.72;;;4.50;;
8708;SDS011;4391;48.678;9.280;2023-06-10T07:02:30;7.37;;;4.10;;
8708;SDS011;4391;48.678;9.280;2023-06-10T07:04:59;9.18;;;4.13;;
8708;SDS011;4391;48.678;9.280;2023-06-10T07:07:26;10.60;;;4.28;;
8708;SDS011;4391;48.678;9.280;2023-06-10T07:09:53;7.00;;;4.13;;
8708;SDS011;4391;48.678;9.280;2023-06-10T07:12:20;9.32;;;4.53;;
8708;SDS011;4391;48.678;9.280;2023-06-10T07:14:49;5.80;;;3.43;;
8708;SDS011;4391;48.678;9.280;2023-06-10T07:17:15;7.45;;;4.20;;
8708;SDS011;4391;48.678;9.280;2023-06-10T07:19:43;9.25;;;4.22;;
8708;SDS011;4391;48.678;9.280;2023-06-10T07:22:11;7.70;;;4.30;;
8708;SDS011;4391;48.678;9.280;2023-06-10T07:24:38;7.95;;;4.57;;
8708;SDS011;4391;48.678;9.280;2023-06-10T07:27:05;7.83;;;4.73;;
8708;SDS011;4391;48.678;9.280;2023-06-10T07:29:32;7.03;;;4.40;;
8708;SDS011;4391;48.678;9.280;2023-06-10T07:32:00;7.03;;;4.00;;
8708;SDS011;4391;48.678;9.280;2023-06-10T07:34:28;9.65;;;3.80;;
8708;SDS011;4391;48.678;9.280;2023-06-10T07:36:54;8.38;;;4.20;;
8708;SDS011;4391;48.678;9.280;2023-06-10T07:39:22;8.07;;;4.20;;
8708;SDS011;4391;48.678;9.280;2023-06-10T07:41:50;6.55;;;3.92;;
8708;SDS011;4391;48.678;9.280;2023-06-10T07:44:18;6.78;;;3.70;;
8708;SDS011;4391;48.678;9.280;2023-06-10T07:46:46;7.78;;;4.00;;
8708;SDS011;4391;48.678;9.280;2023-06-10T07:49:13;5.80;;;3.70;;
8708;SDS011;4391;48.678;9.280;2023-06-10T07:51:42;6.93;;;3.73;;
8708;SDS011;4391;48.678;9.280;2023-06-10T07:54:08;10.02;;;3.80;;
8708;SDS011;4391;48.678;9.280;2023-06-10T07:56:38;6.13;;;3.85;;
8708;SDS011;4391;48.678;9.280;2023-06-10T07:59:05;6.65;;;3.80;;
8708;SDS011;4391;48.678;9.280;2023-06-10T08:01:32;6.53;;;3.50;;
8708;SDS011;4391;48.678;9.280;2023-06-10T08:04:00;9.40;;;3.80;;
8708;SDS011;4391;48.678;9.280;2023-06-10T08:06:27;6.38;;;3.70;;
8708;SDS011;4391;48.678;9.280;2023-06-10T08:08:54;5.32;;;3.30;;
8708;SDS011;4391;48.678;9.280;2023-06-10T08:11:21;6.57;;;3.97;;
8708;SDS011;4391;48.678;9.280;2023-06-10T08:13:49;7.70;;;3.92;;
8708;SDS011;4391;48.678;9.280;2023-06-10T08:16:17;5.70;;;3.10;;
8708;SDS011;4391;48.678;9.280;2023-06-10T08:18:44;6.00;;;3.30;;
8708;SDS011;4391;48.678;9.280;2023-06-10T08:21:11;5.00;;;3.17;;
8708;SDS011;4391;48.678;9.280;2023-06-10T08:23:38;5.95;;;3.40;;
8708;SDS011;4391;48.678;9.280;2023-06-10T08:26:06;6.10;;;3.28;;
8708;SDS011;4391;48.678;9.280;2023-06-10T08:28:33;6.60;;;3.20;;
8708;SDS011;4391;48.678;9.280;2023-06-10T08:31:02;7.25;;;3.75;;
8708;SDS011;4391;48.678;9.280;2023-06-10T08:33:29;6.60;;;3.55;;
8708;SDS011;4391;48.678;9.280;2023-06-10T08:35:55;6.22;;;3.30;;
8708;SDS011;4391;48.678;9.280;2023-06-10T08:38:22;6.72;;;3.67;;
8708;SDS011;4391;48.678;9.280;2023-06-10T08:40:49;6.10;;;3.43;;
8708;SDS011;4391;48.678;9.280;2023-06-10T08:43:21;5.72;;;3.50;;
8708;SDS011;4391;48.678;9.280;2023-06-10T08:45:55;6.30;;;3.47;;
8708;SDS011;4391;48.678;9.280;2023-06-10T08:48:28;6.18;;;3.08;;
8708;SDS011;4391;48.678;9.280;2023-06-10T08:50:57;6.32;;;3.45;;
8708;SDS011;4391;48.678;9.280;2023-06-10T08:53:24;5.80;;;3.30;;
8708;SDS011;4391;48.678;9.280;2023-06-10T08:55:53;6.25;;;3.28;;
8708;SDS011;4391;48.678;9.280;2023-06-10T08:58:24;6.13;;;3.47;;
8708;SDS011;4391;48.678;9.280;2023-06-10T09:00:53;6.40;;;3.20;;
8708;SDS011;4391;48.678;9.280;2023-06-10T09:03:20;6.75;;;3.13;;
8708;SDS011;4391;48.678;9.280;2023-06-10T09:05:50;10.47;;;3.00;;
8708;SDS011;4391;48.678;9.280;2023-06-10T09:08:17;5.28;;;2.60;;
8708;SDS011;4391;48.678;9.280;2023-06-10T09:10:46;7.00;;;3.08;;
8708;SDS011;4391;48.678;9.280;2023-06-10T09:13:14;5.13;;;2.90;;
8708;SDS011;4391;48.678;9.280;2023-06-10T09:15:43;5.60;;;3.08;;
8708;SDS011;4391;48.678;9.280;2023-06-10T09:18:11;5.70;;;2.60;;
8708;SDS011;4391;48.678;9.280;2023-06-10T09:20:38;6.55;;;2.95;;
8708;SDS011;4391;48.678;9.280;2023-06-10T09:23:07;6.25;;;3.10;;
8708;SDS011;4391;48.678;9.280;2023-06-10T09:25:34;5.43;;;3.00;;
8708;SDS011;4391;48.678;9.280;2023-06-10T09:28:03;5.63;;;3.05;;
8708;SDS011;4391;48.678;9.280;2023-06-10T09:30:31;5.97;;;2.90;;
8708;SDS011;4391;48.678;9.280;2023-06-10T09:33:03;5.55;;;2.90;;
8708;SDS011;4391;48.678;9.280;2023-06-10T09:35:37;7.63;;;3.00;;
8708;SDS011;4391;48.678;9.280;2023-06-10T09:38:13;5.15;;;3.10;;
8708;SDS011;4391;48.678;9.280;2023-06-10T09:40:48;5.97;;;2.92;;
8708;SDS011;4391;48.678;9.280;2023-06-10T09:43:16;4.60;;;2.67;;
8708;SDS011;4391;48.678;9.280;2023-06-10T09:45:43;5.75;;;3.10;;
8708;SDS011;4391;48.678;9.280;2023-06-10T09:48:10;4.82;;;2.60;;
8708;SDS011;4391;48.678;9.280;2023-06-10T09:50:41;5.05;;;2.90;;
8708;SDS011;4391;48.678;9.280;2023-06-10T09:53:08;4.78;;;2.80;;
8708;SDS011;4391;48.678;9.280;2023-06-10T09:55:38;5.00;;;2.57;;
8708;SDS011;4391;48.678;9.280;2023-06-10T09:58:05;5.60;;;2.80;;
8708;SDS011;4391;48.678;9.280;2023-06-10T10:00:33;4.85;;;2.90;;
8708;SDS011;4391;48.678;9.280;2023-06-10T10:03:00;9.77;;;2.90;;
8708;SDS011;4391;48.678;9.280;2023-06-10T10:05:31;5.00;;;2.65;;
8708;SDS011;4391;48.678;9.280;2023-06-10T10:07:58;5.45;;;2.90;;
8708;SDS011;4391;48.678;9.280;2023-06-10T10:10:25;7.10;;;2.90;;
8708;SDS011;4391;48.678;9.280;2023-06-10T10:12:54;5.80;;;2.92;;
8708;SDS011;4391;48.678;9.280;2023-06-10T10:15:22;5.28;;;2.70;;
8708;SDS011;4391;48.678;9.280;2023-06-10T10:17:56;6.65;;;2.65;;
8708;SDS011;4391;48.678;9.280;2023-06-10T10:20:29;4.88;;;2.50;;
8708;SDS011;4391;48.678;9.280;2023-06-10T10:22:59;8.07;;;2.60;;
8708;SDS011;4391;48.678;9.280;2023-06-10T10:25:29;5.53;;;3.00;;
8708;SDS011;4391;48.678;9.280;2023-06-10T10:28:05;4.30;;;2.70;;
8708;SDS011;4391;48.678;9.280;2023-06-10T10:30:37;5.72;;;2.90;;
8708;SDS011;4391;48.678;9.280;2023-06-10T10:33:06;6.68;;;2.90;;
8708;SDS011;4391;48.678;9.280;2023-06-10T10:35:38;4.82;;;2.80;;
8708;SDS011;4391;48.678;9.280;2023-06-10T10:38:06;5.68;;;2.95;;
8708;SDS011;4391;48.678;9.280;2023-06-10T10:40:33;4.93;;;2.83;;
8708;SDS011;4391;48.678;9.280;2023-06-10T10:43:00;4.47;;;2.70;;
8708;SDS011;4391;48.678;9.280;2023-06-10T10:45:30;4.38;;;2.50;;
8708;SDS011;4391;48.678;9.280;2023-06-10T10:47:59;4.80;;;3.00;;
8708;SDS011;4391;48.678;9.280;2023-06-10T10:50:32;10.18;;;3.90;;
8708;SDS011;4391;48.678;9.280;2023-06-10T10:53:00;5.15;;;2.33;;
8708;SDS011;4391;48.678;9.280;2023-06-10T10:55:31;5.43;;;2.80;;
8708;SDS011;4391;48.678;9.280;2023-06-10T10:57:59;4.43;;;2.50;;
8708;SDS011;4391;48.678;9.280;2023-06-10T11:00:31;5.40;;;2.60;;
8708;SDS011;4391;48.678;9.280;2023-06-10T11:03:07;5.55;;;2.28;;
8708;SDS011;4391;48.678;9.280;2023-06-10T11:05:39;5.38;;;2.45;;
8708;SDS011;4391;48.678;9.280;2023-06-10T11:08:09;5.75;;;2.40;;
8708;SDS011;4391;48.678;9.280;2023-06-10T11:10:37;6.38;;;2.60;;
8708;SDS011;4391;48.678;9.280;2023-06-10T11:13:05;5.63;;;2.30;;
8708;SDS011;4391;48.678;9.280;2023-06-10T11:15:37;5.75;;;2.60;;
8708;SDS011;4391;48.678;9.280;2023-06-10T11:21:01;4.35;;;2.47;;
8708;SDS011;4391;48.678;9.280;2023-06-10T11:23:39;8.83;;;2.40;;
8708;SDS011;4391;48.678;9.280;2023-06-10T11:26:10;5.60;;;1.90;;
8708;SDS011;4391;48.678;9.280;2023-06-10T11:29:02;3.78;;;1.90;;
8708;SDS011;4391;48.678;9.280;2023-06-10T11:31:39;4.57;;;2.25;;
8708;SDS011;4391;48.678;9.280;2023-06-10T11:34:08;3.85;;;2.08;;
8708;SDS011;4391;48.678;9.280;2023-06-10T11:36:36;4.05;;;2.13;;
8708;SDS011;4391;48.678;9.280;2023-06-10T11:39:07;4.72;;;2.25;;
8708;SDS011;4391;48.678;9.280;2023-06-10T11:41:35;4.07;;;2.38;;
8708;SDS011;4391;48.678;9.280;2023-06-10T11:44:04;5.97;;;2.50;;
8708;SDS011;4391;48.678;9.280;2023-06-10T11:46:33;4.25;;;2.20;;
8708;SDS011;4391;48.678;9.280;2023-06-10T11:49:02;4.40;;;2.08;;
8708;SDS011;4391;48.678;9.280;2023-06-10T11:51:32;3.78;;;1.90;;
8708;SDS011;4391;48.678;9.280;2023-06-10T11:54:00;3.90;;;1.85;;
8708;SDS011;4391;48.678;9.280;2023-06-10T11:56:27;4.75;;;2.10;;
8708;SDS011;4391;48.678;9.280;2023-06-10T11:58:56;4.03;;;2.30;;
8708;SDS011;4391;48.678;9.280;2023-06-10T12:01:26;4.13;;;2.03;;
8708;SDS011;4391;48.678;9.280;2023-06-10T12:03:56;3.80;;;1.80;;
8708;SDS011;4391;48.678;9.280;2023-06-10T12:06:37;4.90;;;2.10;;
8708;SDS011;4391;48.678;9.280;2023-06-10T12:09:05;4.05;;;1.98;;
8708;SDS011;4391;48.678;9.280;2023-06-10T12:11:33;5.30;;;2.10;;
8708;SDS011;4391;48.678;9.280;2023-06-10T12:14:00;5.63;;;2.33;;
8708;SDS011;4391;48.678;9.280;2023-06-10T12:16:29;3.65;;;1.90;;
8708;SDS011;4391;48.678;9.280;2023-06-10T12:19:02;3.90;;;2.00;;
8708;SDS011;4391;48.678;9.280;2023-06-10T12:21:31;3.60;;;1.90;;
8708;SDS011;4391;48.678;9.280;2023-06-10T12:24:00;4.00;;;1.73;;
8708;SDS011;4391;48.678;9.280;2023-06-10T12:26:38;3.65;;;1.92;;
8708;SDS011;4391;48.678;9.280;2023-06-10T12:31:58;4.80;;;2.30;;
8708;SDS011;4391;48.678;9.280;2023-06-10T12:34:30;8.18;;;4.32;;
8708;SDS011;4391;48.678;9.280;2023-06-10T12:37:01;4.93;;;2.40;;
8708;SDS011;4391;48.678;9.280;2023-06-10T12:39:29;5.40;;;3.13;;
8708;SDS011;4391;48.678;9.280;2023-06-10T12:41:56;6.60;;;2.97;;
8708;SDS011;4391;48.678;9.280;2023-06-10T12:44:30;6.80;;;5.55;;
8708;SDS011;4391;48.678;9.280;2023-06-10T12:46:58;6.47;;;3.80;;
8708;SDS011;4391;48.678;9.280;2023-06-10T12:49:25;5.45;;;2.90;;
8708;SDS011;4391;48.678;9.280;2023-06-10T12:51:53;6.32;;;4.05;;
8708;SDS011;4391;48.678;9.280;2023-06-10T12:54:21;6.90;;;3.67;;
8708;SDS011;4391;48.678;9.280;2023-06-10T12:56:48;5.17;;;3.30;;
8708;SDS011;4391;48.678;9.280;2023-06-10T12:59:15;4.90;;;2.70;;
8708;SDS011;4391;48.678;9.280;2023-06-10T13:01:42;4.82;;;2.70;;
8708;SDS011;4391;48.678;9.280;2023-06-10T13:04:08;4.40;;;2.40;;
8708;SDS011;4391;48.678;9.280;2023-06-10T13:06:36;4.32;;;2.40;;
8708;SDS011;4391;48.678;9.280;2023-06-10T13:09:05;4.38;;;2.58;;
8708;SDS011;4391;48.678;9.280;2023-06-10T13:11:33;5.47;;;2.60;;
8708;SDS011;4391;48.678;9.280;2023-06-10T13:14:00;5.27;;;2.80;;
8708;SDS011;4391;48.678;9.280;2023-06-10T13:16:27;4.97;;;2.42;;
8708;SDS011;4391;48.678;9.280;2023-06-10T13:18:54;3.90;;;2.00;;
8708;SDS011;4391;48.678;9.280;2023-06-10T13:21:21;5.50;;;1.90;;
8708;SDS011;4391;48.678;9.280;2023-06-10T13:23:51;4.93;;;2.20;;
8708;SDS011;4391;48.678;9.280;2023-06-10T13:26:19;4.70;;;2.55;;
8708;SDS011;4391;48.678;9.280;2023-06-10T13:28:46;7.43;;;2.50;;
8708;SDS011;4391;48.678;9.280;2023-06-10T13:31:13;5.23;;;2.30;;
8708;SDS011;4391;48.678;9.280;2023-06-10T13:33:40;5.38;;;2.42;;
8708;SDS011;4391;48.678;9.280;2023-06-10T13:36:08;4.43;;;2.00;;
8708;SDS011;4391;48.678;9.280;2023-06-10T13:38:37;3.63;;;1.80;;
8708;SDS011;4391;48.678;9.280;2023-06-10T13:41:04;4.95;;;1.73;;
8708;SDS011;4391;48.678;9.280;2023-06-10T13:43:33;3.95;;;2.10;;
8708;SDS011;4391;48.678;9.280;2023-06-10T13:45:59;3.67;;;1.90;;
8708;SDS011;4391;48.678;9.280;2023-06-10T13:48:26;3.20;;;1.80;;
8708;SDS011;4391;48.678;9.280;2023-06-10T13:50:53;3.80;;;2.03;;
8708;SDS011;4391;48.678;9.280;2023-06-10T13:53:20;5.38;;;2.10;;
8708;SDS011;4391;48.678;9.280;2023-06-10T13:55:47;4.63;;;2.10;;
8708;SDS011;4391;48.678;9.280;2023-06-10T13:58:13;4.53;;;1.90;;
8708;SDS011;4391;48.678;9.280;2023-06-10T14:00:42;5.53;;;1.97;;
8708;SDS011;4391;48.678;9.280;2023-06-10T14:03:09;3.60;;;1.80;;
8708;SDS011;4391;48.678;9.280;2023-06-10T14:05:35;3.67;;;1.98;;
8708;SDS011;4391;48.678;9.280;2023-06-10T14:08:03;3.80;;;1.70;;
8708;SDS011;4391;48.678;9.280;2023-06-10T14:10:30;3.83;;;1.90;;
8708;SDS011;4391;48.678;9.280;2023-06-10T14:12:56;3.67;;;1.90;;
8708;SDS011;4391;48.678;9.280;2023-06-10T14:15:23;4.70;;;2.00;;
8708;SDS011;4391;48.678;9.280;2023-06-10T14:17:52;4.73;;;2.03;;
8708;SDS011;4391;48.678;9.280;2023-06-10T14:20:19;4.95;;;2.15;;
8708;SDS011;4391;48.678;9.280;2023-06-10T14:22:45;6.22;;;2.25;;
8708;SDS011;4391;48.678;9.280;2023-06-10T14:25:12;3.83;;;2.15;;
8708;SDS011;4391;48.678;9.280;2023-06-10T14:27:39;4.90;;;2.20;;
8708;SDS011;4391;48.678;9.280;2023-06-10T14:30:07;6.00;;;2.40;;
8708;SDS011;4391;48.678;9.280;2023-06-10T14:32:34;4.10;;;2.00;;
8708;SDS011;4391;48.678;9.280;2023-06-10T14:35:02;3.80;;;2.17;;
8708;SDS011;4391;48.678;9.280;2023-06-10T14:37:29;4.13;;;1.90;;
8708;SDS011;4391;48.678;9.280;2023-06-10T14:39:56;5.20;;;2.30;;
8708;SDS011;4391;48.678;9.280;2023-06-10T14:42:23;5.55;;;2.13;;
8708;SDS011;4391;48.678;9.280;2023-06-10T14:44:50;5.22;;;2.25;;
8708;SDS011;4391;48.678;9.280;2023-06-10T14:47:17;5.75;;;2.25;;
8708;SDS011;4391;48.678;9.280;2023-06-10T14:49:44;4.93;;;2.70;;
8708;SDS011;4391;48.678;9.280;2023-06-10T14:52:12;4.97;;;2.37;;
8708;SDS011;4391;48.678;9.280;2023-06-10T14:54:39;4.80;;;2.03;;
8708;SDS011;4391;48.678;9.280;2023-06-10T14:57:05;4.68;;;2.60;;
8708;SDS011;4391;48.678;9.280;2023-06-10T14:59:32;4.93;;;2.40;;
8708;SDS011;4391;48.678;9.280;2023-06-10T15:02:00;5.30;;;3.22;;
8708;SDS011;4391;48.678;9.280;2023-06-10T15:04:26;4.93;;;2.77;;
8708;SDS011;4391;48.678;9.280;2023-06-10T15:06:53;7.73;;;3.33;;
8708;SDS011;4391;48.678;9.280;2023-06-10T15:09:22;6.85;;;2.67;;
8708;SDS011;4391;48.678;9.280;2023-06-10T15:11:49;5.35;;;2.85;;
8708;SDS011;4391;48.678;9.280;2023-06-10T15:14:15;5.10;;;2.85;;
8708;SDS011;4391;48.678;9.280;2023-06-10T15:16:42;5.50;;;3.15;;
8708;SDS011;4391;48.678;9.280;2023-06-10T15:19:09;4.80;;;2.80;;
8708;SDS011;4391;48.678;9.280;2023-06-10T15:21:36;5.00;;;2.88;;
8708;SDS011;4391;48.678;9.280;2023-06-10T15:24:03;4.60;;;2.67;;
8708;SDS011;4391;48.678;9.280;2023-06-10T15:26:32;5.07;;;2.70;;
8708;SDS011;4391;48.678;9.280;2023-06-10T15:28:58;7.80;;;2.90;;